createdAt,value
2018-05-03T00:01:06.549Z,17.9
2018-05-03T00:11:06.681Z,18.2
2018-05-03T00:21:05.700Z,16.9
2018-05-03T00:31:06.597Z,17.6
2018-05-03T00:41:06.417Z,17.5
2018-05-03T00:51:06.164Z,19.4
2018-05-03T01:01:06.071Z,18.8
2018-05-03T01:11:05.975Z,18.1
2018-05-03T01:21:05.983Z,18.9
2018-05-03T01:31:05.810Z,19.7
2018-05-03T01:41:05.729Z,19.0
2018-05-03T01:51:06.549Z,19.4
2018-05-03T02:01:06.540Z,18.9
2018-05-03T02:11:06.464Z,18.9
2018-05-03T02:21:06.486Z,20.1
2018-05-03T02:31:06.350Z,18.2
2018-05-03T02:41:06.438Z,19.2
2018-05-03T02:51:06.326Z,20.0
2018-05-03T03:01:06.248Z,19.7
2018-05-03T03:11:06.214Z,19.7
2018-05-03T03:21:06.181Z,19.1
2018-05-03T03:31:06.084Z,20.0
2018-05-03T03:41:05.993Z,19.0
2018-05-03T03:51:05.941Z,19.3
2018-05-03T04:01:05.868Z,19.8
2018-05-03T04:11:05.689Z,19.2
2018-05-03T04:21:05.739Z,19.1
2018-05-03T04:31:06.222Z,18.7
2018-05-03T04:41:06.181Z,22.1
2018-05-03T04:51:06.043Z,20.3
2018-05-03T05:01:05.911Z,18.9
2018-05-03T05:11:05.716Z,20.3
2018-05-03T05:21:05.689Z,24.9
2018-05-03T05:31:06.503Z,22.1
2018-05-03T05:41:06.313Z,25.3
2018-05-03T05:51:06.340Z,31.9
2018-05-03T06:01:06.257Z,31.7
2018-05-03T06:11:06.182Z,23.5
2018-05-03T06:21:06.286Z,22.9
2018-05-03T06:31:06.190Z,23.3
2018-05-03T06:41:06.111Z,22.4
2018-05-03T06:51:05.996Z,22.1
2018-05-03T07:01:05.910Z,23.7
2018-05-03T07:11:04.817Z,24.1
2018-05-03T07:21:04.846Z,23.0
2018-05-03T07:31:06.762Z,21.7
2018-05-03T07:41:06.682Z,23.7
2018-05-03T07:51:06.587Z,25.3
2018-05-03T08:01:06.537Z,22.2
2018-05-03T08:11:06.478Z,21.8
2018-05-03T08:21:06.502Z,22.4
2018-05-03T08:31:06.393Z,20.6
2018-05-03T08:41:06.287Z,19.5
2018-05-03T08:51:06.239Z,19.7
2018-05-03T09:01:06.191Z,18.9
2018-05-03T09:11:05.031Z,16.9
2018-05-03T09:21:06.128Z,18.7
2018-05-03T09:31:06.143Z,18.5
2018-05-03T09:41:06.074Z,15.8
2018-05-03T09:51:05.050Z,23.1
2018-05-03T10:01:05.006Z,21.6
2018-05-03T10:11:04.922Z,18.2
2018-05-03T10:21:04.972Z,14.8
2018-05-03T10:31:04.982Z,14.0
2018-05-03T10:41:04.897Z,13.5
2018-05-03T10:51:05.957Z,13.3
2018-05-03T11:01:04.897Z,13.3
2018-05-03T11:11:05.850Z,16.1
2018-05-03T11:21:05.047Z,12.1
2018-05-03T11:31:05.008Z,11.9
2018-05-03T11:41:05.520Z,12.6
2018-05-03T11:51:05.426Z,11.1
2018-05-03T12:01:05.405Z,9.5
2018-05-03T12:11:05.426Z,9.5
2018-05-03T12:21:05.561Z,11.3
2018-05-03T12:31:05.605Z,11.8
2018-05-03T12:41:05.544Z,9.6
2018-05-03T12:51:05.470Z,10.2
2018-05-03T13:01:05.464Z,10.8
2018-05-03T13:11:05.303Z,12.6
2018-05-03T13:21:05.375Z,10.0
2018-05-03T13:31:05.274Z,9.8
2018-05-03T13:41:05.243Z,10.9
2018-05-03T13:51:05.092Z,10.4
2018-05-03T14:01:05.110Z,11.6
2018-05-03T14:11:05.099Z,9.1
2018-05-03T14:21:05.417Z,8.3
2018-05-03T14:31:05.406Z,8.1
2018-05-03T14:41:05.484Z,8.6
2018-05-03T14:51:05.415Z,9.4
2018-05-03T15:01:05.406Z,8.5
2018-05-03T15:11:05.401Z,8.3
2018-05-03T15:21:05.493Z,8.7
2018-05-03T15:31:06.528Z,8.6
2018-05-03T15:41:05.484Z,9.2
2018-05-03T15:51:05.451Z,8.1
2018-05-03T16:01:05.407Z,8.4
2018-05-03T16:11:06.309Z,6.6
2018-05-03T16:21:06.325Z,7.3
2018-05-03T16:31:05.293Z,9.6
2018-05-03T16:41:05.190Z,9.6
2018-05-03T16:51:05.153Z,9.8
2018-05-03T17:01:05.051Z,15.2
2018-05-03T17:11:06.020Z,22.7
2018-05-03T17:21:05.170Z,23.5
2018-05-03T17:31:05.177Z,22.1
2018-05-03T17:41:05.112Z,22.7
2018-05-03T17:51:07.353Z,22.9
2018-05-03T18:01:05.415Z,21.8
2018-05-03T18:11:05.442Z,25.2
2018-05-03T18:21:05.527Z,15.1
2018-05-03T18:31:06.593Z,12.6
2018-05-03T18:41:06.602Z,14.6
2018-05-03T18:51:06.629Z,13.7
2018-05-03T19:01:06.777Z,13.5
2018-05-03T19:11:06.869Z,13.8
2018-05-03T19:21:06.948Z,11.3
2018-05-03T19:31:06.888Z,11.8
2018-05-03T19:41:06.814Z,9.3
2018-05-03T19:51:06.846Z,9.9
2018-05-03T20:01:06.863Z,8.7
2018-05-03T20:11:07.094Z,10.6
2018-05-03T20:21:05.162Z,10.8
2018-05-03T20:31:07.126Z,10.3
2018-05-03T20:41:07.113Z,11.7
2018-05-03T20:51:07.143Z,10.3
2018-05-03T21:01:06.062Z,10.8
2018-05-03T21:11:06.016Z,11.1
2018-05-03T21:21:07.094Z,11.3
2018-05-03T21:31:07.068Z,11.7
2018-05-03T21:41:07.055Z,10.9
2018-05-03T21:51:06.992Z,10.8
2018-05-03T22:01:06.923Z,10.8
2018-05-03T22:11:06.865Z,11.1
2018-05-03T22:21:06.913Z,10.3
2018-05-03T22:31:06.849Z,10.0
2018-05-03T22:41:06.797Z,8.8
2018-05-03T22:51:06.706Z,9.3
2018-05-03T23:01:06.611Z,8.8
2018-05-03T23:11:06.438Z,9.0
2018-05-03T23:21:06.449Z,12.3
2018-05-03T23:31:06.280Z,12.4
2018-05-03T23:41:07.181Z,13.6
2018-05-03T23:51:07.090Z,12.7
